sensor_id;sensor_type;location;lat;lon;timestamp;P1;durP1;ratioP1;P2;durP2;ratioP2
1320;SDS011;653;51.480;11.992;2022-12-17T00:01:52;56.43;;;34.47;;
1320;SDS011;653;51.480;11.992;2022-12-17T00:04:35;60.37;;;35.07;;
1320;SDS011;653;51.480;11.992;2022-12-17T00:07:20;57.77;;;35.13;;
1320;SDS011;653;51.480;11.992;2022-12-17T00:10:04;55.27;;;34.50;;
1320;SDS011;653;51.480;11.992;2022-12-17T00:12:48;55.97;;;34.83;;
1320;SDS011;653;51.480;11.992;2022-12-17T00:15:51;51.53;;;33.90;;
1320;SDS011;653;51.480;11.992;2022-12-17T00:18:35;62.73;;;38.87;;
1320;SDS011;653;51.480;11.992;2022-12-17T00:21:19;60.10;;;37.77;;
1320;SDS011;653;51.480;11.992;2022-12-17T00:24:03;53.93;;;33.90;;
1320;SDS011;653;51.480;11.992;2022-12-17T00:26:47;50.57;;;33.67;;
1320;SDS011;653;51.480;11.992;2022-12-17T00:29:31;55.60;;;34.17;;
1320;SDS011;653;51.480;11.992;2022-12-17T00:32:15;52.63;;;35.80;;
1320;SDS011;653;51.480;11.992;2022-12-17T00:34:59;66.47;;;36.73;;
1320;SDS011;653;51.480;11.992;2022-12-17T00:37:53;54.27;;;34.70;;
1320;SDS011;653;51.480;11.992;2022-12-17T00:40:37;52.43;;;33.20;;
1320;SDS011;653;51.480;11.992;2022-12-17T00:43:21;51.50;;;35.00;;
1320;SDS011;653;51.480;11.992;2022-12-17T00:46:05;54.00;;;34.93;;
1320;SDS011;653;51.480;11.992;2022-12-17T00:48:49;54.33;;;34.70;;
1320;SDS011;653;51.480;11.992;2022-12-17T00:51:33;57.27;;;35.50;;
1320;SDS011;653;51.480;11.992;2022-12-17T00:54:17;58.60;;;34.13;;
1320;SDS011;653;51.480;11.992;2022-12-17T00:57:01;46.03;;;30.93;;
1320;SDS011;653;51.480;11.992;2022-12-17T00:59:45;48.80;;;32.23;;
1320;SDS011;653;51.480;11.992;2022-12-17T01:02:29;53.67;;;34.20;;
1320;SDS011;653;51.480;11.992;2022-12-17T01:05:16;56.07;;;33.03;;
1320;SDS011;653;51.480;11.992;2022-12-17T01:08:12;49.07;;;32.37;;
1320;SDS011;653;51.480;11.992;2022-12-17T01:10:58;53.67;;;35.37;;
1320;SDS011;653;51.480;11.992;2022-12-17T01:13:53;54.93;;;36.20;;
1320;SDS011;653;51.480;11.992;2022-12-17T01:16:37;54.13;;;33.27;;
1320;SDS011;653;51.480;11.992;2022-12-17T01:19:22;55.53;;;34.23;;
1320;SDS011;653;51.480;11.992;2022-12-17T01:22:06;54.90;;;36.10;;
1320;SDS011;653;51.480;11.992;2022-12-17T01:24:50;50.03;;;34.07;;
1320;SDS011;653;51.480;11.992;2022-12-17T01:27:34;56.10;;;34.20;;
1320;SDS011;653;51.480;11.992;2022-12-17T01:30:18;52.50;;;32.93;;
1320;SDS011;653;51.480;11.992;2022-12-17T01:33:03;60.27;;;36.03;;
1320;SDS011;653;51.480;11.992;2022-12-17T01:35:48;50.70;;;33.73;;
1320;SDS011;653;51.480;11.992;2022-12-17T01:38:32;53.10;;;34.07;;
1320;SDS011;653;51.480;11.992;2022-12-17T01:41:19;55.87;;;35.40;;
1320;SDS011;653;51.480;11.992;2022-12-17T01:47:22;51.10;;;32.37;;
1320;SDS011;653;51.480;11.992;2022-12-17T01:50:07;55.17;;;34.17;;
1320;SDS011;653;51.480;11.992;2022-12-17T01:52:52;49.80;;;32.37;;
1320;SDS011;653;51.480;11.992;2022-12-17T01:55:38;47.67;;;33.40;;
1320;SDS011;653;51.480;11.992;2022-12-17T01:58:23;49.97;;;33.07;;
1320;SDS011;653;51.480;11.992;2022-12-17T02:01:07;48.13;;;31.07;;
1320;SDS011;653;51.480;11.992;2022-12-17T02:03:51;54.10;;;32.50;;
1320;SDS011;653;51.480;11.992;2022-12-17T02:06:34;48.73;;;32.80;;
1320;SDS011;653;51.480;11.992;2022-12-17T02:09:22;54.30;;;36.80;;
1320;SDS011;653;51.480;11.992;2022-12-17T02:12:16;47.60;;;32.03;;
1320;SDS011;653;51.480;11.992;2022-12-17T02:18:01;53.97;;;31.90;;
1320;SDS011;653;51.480;11.992;2022-12-17T02:20:46;49.33;;;32.00;;
1320;SDS011;653;51.480;11.992;2022-12-17T02:23:37;49.53;;;32.33;;
1320;SDS011;653;51.480;11.992;2022-12-17T02:29:21;53.63;;;32.23;;
1320;SDS011;653;51.480;11.992;2022-12-17T02:32:07;49.90;;;33.10;;
1320;SDS011;653;51.480;11.992;2022-12-17T02:34:52;46.00;;;32.83;;
1320;SDS011;653;51.480;11.992;2022-12-17T02:37:37;52.17;;;31.17;;
1320;SDS011;653;51.480;11.992;2022-12-17T02:40:21;58.20;;;34.77;;
1320;SDS011;653;51.480;11.992;2022-12-17T02:43:06;60.40;;;37.10;;
1320;SDS011;653;51.480;11.992;2022-12-17T02:45:51;55.00;;;37.27;;
1320;SDS011;653;51.480;11.992;2022-12-17T02:48:35;53.67;;;37.33;;
1320;SDS011;653;51.480;11.992;2022-12-17T02:51:20;51.53;;;31.73;;
1320;SDS011;653;51.480;11.992;2022-12-17T02:54:04;51.53;;;35.70;;
1320;SDS011;653;51.480;11.992;2022-12-17T02:56:51;49.53;;;35.00;;
1320;SDS011;653;51.480;11.992;2022-12-17T02:59:35;52.00;;;33.10;;
1320;SDS011;653;51.480;11.992;2022-12-17T03:02:19;54.43;;;34.83;;
1320;SDS011;653;51.480;11.992;2022-12-17T03:05:03;54.47;;;34.50;;
1320;SDS011;653;51.480;11.992;2022-12-17T03:07:47;57.17;;;35.20;;
1320;SDS011;653;51.480;11.992;2022-12-17T03:10:31;59.90;;;38.00;;
1320;SDS011;653;51.480;11.992;2022-12-17T03:13:23;49.40;;;33.33;;
1320;SDS011;653;51.480;11.992;2022-12-17T03:16:09;51.37;;;32.77;;
1320;SDS011;653;51.480;11.992;2022-12-17T03:18:54;53.90;;;34.10;;
1320;SDS011;653;51.480;11.992;2022-12-17T03:21:39;54.00;;;34.23;;
1320;SDS011;653;51.480;11.992;2022-12-17T03:24:22;50.87;;;33.40;;
1320;SDS011;653;51.480;11.992;2022-12-17T03:27:06;57.10;;;35.63;;
1320;SDS011;653;51.480;11.992;2022-12-17T03:29:50;47.80;;;31.80;;
1320;SDS011;653;51.480;11.992;2022-12-17T03:32:34;53.47;;;32.13;;
1320;SDS011;653;51.480;11.992;2022-12-17T03:35:18;67.50;;;34.07;;
1320;SDS011;653;51.480;11.992;2022-12-17T03:38:06;54.27;;;33.90;;
1320;SDS011;653;51.480;11.992;2022-12-17T03:40:50;49.90;;;31.77;;
1320;SDS011;653;51.480;11.992;2022-12-17T03:43:34;55.60;;;35.77;;
1320;SDS011;653;51.480;11.992;2022-12-17T03:46:18;53.67;;;31.80;;
1320;SDS011;653;51.480;11.992;2022-12-17T03:49:02;55.10;;;31.37;;
1320;SDS011;653;51.480;11.992;2022-12-17T03:51:46;49.50;;;31.50;;
1320;SDS011;653;51.480;11.992;2022-12-17T03:54:31;50.03;;;30.93;;
1320;SDS011;653;51.480;11.992;2022-12-17T03:57:14;50.40;;;32.00;;
1320;SDS011;653;51.480;11.992;2022-12-17T03:59:58;44.43;;;30.50;;
1320;SDS011;653;51.480;11.992;2022-12-17T04:02:42;48.03;;;30.30;;
1320;SDS011;653;51.480;11.992;2022-12-17T04:05:26;46.60;;;30.43;;
1320;SDS011;653;51.480;11.992;2022-12-17T04:08:10;49.23;;;31.27;;
1320;SDS011;653;51.480;11.992;2022-12-17T04:10:54;45.03;;;29.03;;
1320;SDS011;653;51.480;11.992;2022-12-17T04:13:38;51.23;;;31.70;;
1320;SDS011;653;51.480;11.992;2022-12-17T04:16:22;50.73;;;31.77;;
1320;SDS011;653;51.480;11.992;2022-12-17T04:19:06;45.33;;;28.63;;
1320;SDS011;653;51.480;11.992;2022-12-17T04:21:50;41.70;;;28.30;;
1320;SDS011;653;51.480;11.992;2022-12-17T04:24:34;43.23;;;31.20;;
1320;SDS011;653;51.480;11.992;2022-12-17T04:27:28;51.73;;;31.07;;
1320;SDS011;653;51.480;11.992;2022-12-17T04:30:12;45.37;;;30.10;;
1320;SDS011;653;51.480;11.992;2022-12-17T04:32:56;50.07;;;30.20;;
1320;SDS011;653;51.480;11.992;2022-12-17T04:35:40;43.57;;;28.37;;
1320;SDS011;653;51.480;11.992;2022-12-17T04:38:23;45.47;;;30.47;;
1320;SDS011;653;51.480;11.992;2022-12-17T04:41:07;44.17;;;29.23;;
1320;SDS011;653;51.480;11.992;2022-12-17T04:43:51;44.00;;;28.60;;
1320;SDS011;653;51.480;11.992;2022-12-17T04:46:36;43.07;;;29.40;;
1320;SDS011;653;51.480;11.992;2022-12-17T04:49:20;44.87;;;27.90;;
1320;SDS011;653;51.480;11.992;2022-12-17T04:52:04;45.03;;;28.57;;
1320;SDS011;653;51.480;11.992;2022-12-17T04:54:48;44.83;;;27.57;;
1320;SDS011;653;51.480;11.992;2022-12-17T04:57:32;47.23;;;30.77;;
1320;SDS011;653;51.480;11.992;2022-12-17T05:00:16;42.37;;;28.47;;
1320;SDS011;653;51.480;11.992;2022-12-17T05:03:04;44.87;;;28.30;;
1320;SDS011;653;51.480;11.992;2022-12-17T05:05:48;45.63;;;30.90;;
1320;SDS011;653;51.480;11.992;2022-12-17T05:08:32;47.43;;;30.20;;
1320;SDS011;653;51.480;11.992;2022-12-17T05:11:16;46.03;;;30.17;;
1320;SDS011;653;51.480;11.992;2022-12-17T05:14:00;45.70;;;28.80;;
1320;SDS011;653;51.480;11.992;2022-12-17T05:16:45;46.13;;;29.17;;
1320;SDS011;653;51.480;11.992;2022-12-17T05:19:29;45.50;;;27.53;;
1320;SDS011;653;51.480;11.992;2022-12-17T05:22:13;44.10;;;28.00;;
1320;SDS011;653;51.480;11.992;2022-12-17T05:24:57;46.43;;;28.90;;
1320;SDS011;653;51.480;11.992;2022-12-17T05:27:41;41.13;;;27.90;;
1320;SDS011;653;51.480;11.992;2022-12-17T05:30:26;53.70;;;30.50;;
1320;SDS011;653;51.480;11.992;2022-12-17T05:33:10;46.37;;;28.30;;
1320;SDS011;653;51.480;11.992;2022-12-17T05:35:57;43.83;;;28.10;;
1320;SDS011;653;51.480;11.992;2022-12-17T05:38:42;40.80;;;27.23;;
1320;SDS011;653;51.480;11.992;2022-12-17T05:41:26;46.67;;;28.70;;
1320;SDS011;653;51.480;11.992;2022-12-17T05:44:21;53.60;;;30.73;;
1320;SDS011;653;51.480;11.992;2022-12-17T05:47:05;52.23;;;32.40;;
1320;SDS011;653;51.480;11.992;2022-12-17T05:49:49;61.00;;;36.10;;
1320;SDS011;653;51.480;11.992;2022-12-17T05:52:33;90.43;;;39.73;;
1320;SDS011;653;51.480;11.992;2022-12-17T05:55:16;65.93;;;37.80;;
1320;SDS011;653;51.480;11.992;2022-12-17T05:58:01;78.50;;;38.30;;
1320;SDS011;653;51.480;11.992;2022-12-17T06:00:46;78.30;;;40.77;;
1320;SDS011;653;51.480;11.992;2022-12-17T06:03:30;76.47;;;40.07;;
1320;SDS011;653;51.480;11.992;2022-12-17T06:06:14;61.00;;;34.23;;
1320;SDS011;653;51.480;11.992;2022-12-17T06:08:58;80.57;;;40.10;;
1320;SDS011;653;51.480;11.992;2022-12-17T06:11:42;64.27;;;36.17;;
1320;SDS011;653;51.480;11.992;2022-12-17T06:14:26;68.77;;;40.33;;
1320;SDS011;653;51.480;11.992;2022-12-17T06:17:10;67.37;;;39.37;;
1320;SDS011;653;51.480;11.992;2022-12-17T06:19:54;70.20;;;36.93;;
1320;SDS011;653;51.480;11.992;2022-12-17T06:22:38;90.50;;;41.23;;
1320;SDS011;653;51.480;11.992;2022-12-17T06:25:21;73.27;;;38.37;;
1320;SDS011;653;51.480;11.992;2022-12-17T06:28:05;113.43;;;41.10;;
1320;SDS011;653;51.480;11.992;2022-12-17T06:30:50;106.53;;;38.50;;
1320;SDS011;653;51.480;11.992;2022-12-17T06:33:35;84.30;;;39.10;;
1320;SDS011;653;51.480;11.992;2022-12-17T06:36:18;87.30;;;41.83;;
1320;SDS011;653;51.480;11.992;2022-12-17T06:39:03;72.13;;;40.47;;
1320;SDS011;653;51.480;11.992;2022-12-17T06:41:47;88.30;;;41.07;;
1320;SDS011;653;51.480;11.992;2022-12-17T06:44:31;99.67;;;41.73;;
1320;SDS011;653;51.480;11.992;2022-12-17T06:47:15;122.80;;;44.20;;
1320;SDS011;653;51.480;11.992;2022-12-17T06:49:59;113.20;;;44.90;;
1320;SDS011;653;51.480;11.992;2022-12-17T06:52:43;100.40;;;45.10;;
1320;SDS011;653;51.480;11.992;2022-12-17T06:55:27;83.17;;;40.90;;
1320;SDS011;653;51.480;11.992;2022-12-17T06:58:10;106.13;;;43.50;;
1320;SDS011;653;51.480;11.992;2022-12-17T07:00:55;90.33;;;42.27;;
1320;SDS011;653;51.480;11.992;2022-12-17T07:03:39;84.23;;;42.53;;
1320;SDS011;653;51.480;11.992;2022-12-17T07:06:23;87.83;;;39.10;;
1320;SDS011;653;51.480;11.992;2022-12-17T07:09:07;97.10;;;39.53;;
1320;SDS011;653;51.480;11.992;2022-12-17T07:11:51;95.70;;;41.30;;
1320;SDS011;653;51.480;11.992;2022-12-17T07:14:34;90.13;;;41.80;;
1320;SDS011;653;51.480;11.992;2022-12-17T07:17:22;70.03;;;40.73;;
1320;SDS011;653;51.480;11.992;2022-12-17T07:20:06;83.37;;;42.57;;
1320;SDS011;653;51.480;11.992;2022-12-17T07:22:54;71.97;;;36.93;;
1320;SDS011;653;51.480;11.992;2022-12-17T07:25:38;80.77;;;41.00;;
1320;SDS011;653;51.480;11.992;2022-12-17T07:28:23;71.70;;;37.53;;
1320;SDS011;653;51.480;11.992;2022-12-17T07:31:10;70.80;;;38.03;;
1320;SDS011;653;51.480;11.992;2022-12-17T07:33:54;73.93;;;39.77;;
1320;SDS011;653;51.480;11.992;2022-12-17T07:36:38;81.87;;;39.17;;
1320;SDS011;653;51.480;11.992;2022-12-17T07:39:22;74.13;;;39.47;;
1320;SDS011;653;51.480;11.992;2022-12-17T07:42:06;103.60;;;39.30;;
1320;SDS011;653;51.480;11.992;2022-12-17T07:44:50;84.30;;;39.30;;
1320;SDS011;653;51.480;11.992;2022-12-17T07:47:34;69.53;;;38.73;;
1320;SDS011;653;51.480;11.992;2022-12-17T07:50:18;63.43;;;38.83;;
1320;SDS011;653;51.480;11.992;2022-12-17T07:53:02;79.60;;;40.90;;
1320;SDS011;653;51.480;11.992;2022-12-17T07:55:47;86.33;;;41.60;;
1320;SDS011;653;51.480;11.992;2022-12-17T07:58:31;82.87;;;38.90;;
1320;SDS011;653;51.480;11.992;2022-12-17T08:01:15;79.03;;;40.87;;
1320;SDS011;653;51.480;11.992;2022-12-17T08:03:59;76.63;;;39.83;;
1320;SDS011;653;51.480;11.992;2022-12-17T08:06:43;95.10;;;40.87;;
1320;SDS011;653;51.480;11.992;2022-12-17T08:09:27;81.47;;;40.30;;
1320;SDS011;653;51.480;11.992;2022-12-17T08:12:11;85.70;;;39.83;;
1320;SDS011;653;51.480;11.992;2022-12-17T08:14:55;86.23;;;43.33;;
1320;SDS011;653;51.480;11.992;2022-12-17T08:17:39;91.73;;;41.43;;
1320;SDS011;653;51.480;11.992;2022-12-17T08:20:22;78.77;;;40.50;;
1320;SDS011;653;51.480;11.992;2022-12-17T08:23:06;76.53;;;40.50;;
1320;SDS011;653;51.480;11.992;2022-12-17T08:25:50;79.47;;;40.47;;
1320;SDS011;653;51.480;11.992;2022-12-17T08:28:34;83.40;;;40.23;;
1320;SDS011;653;51.480;11.992;2022-12-17T08:31:19;85.33;;;40.73;;
1320;SDS011;653;51.480;11.992;2022-12-17T08:34:05;83.53;;;40.87;;
1320;SDS011;653;51.480;11.992;2022-12-17T08:36:49;80.27;;;39.63;;
1320;SDS011;653;51.480;11.992;2022-12-17T08:39:34;71.77;;;35.53;;
1320;SDS011;653;51.480;11.992;2022-12-17T08:42:17;89.13;;;39.13;;
1320;SDS011;653;51.480;11.992;2022-12-17T08:45:01;95.90;;;41.27;;
1320;SDS011;653;51.480;11.992;2022-12-17T08:47:46;74.60;;;38.50;;
1320;SDS011;653;51.480;11.992;2022-12-17T08:50:30;84.17;;;41.83;;
1320;SDS011;653;51.480;11.992;2022-12-17T08:53:14;73.87;;;37.50;;
1320;SDS011;653;51.480;11.992;2022-12-17T08:55:58;65.23;;;36.03;;
1320;SDS011;653;51.480;11.992;2022-12-17T08:58:42;79.40;;;37.60;;
1320;SDS011;653;51.480;11.992;2022-12-17T09:01:25;71.77;;;37.30;;
1320;SDS011;653;51.480;11.992;2022-12-17T09:04:13;72.97;;;34.83;;
1320;SDS011;653;51.480;11.992;2022-12-17T09:06:57;79.27;;;40.77;;
1320;SDS011;653;51.480;11.992;2022-12-17T09:09:41;61.83;;;35.57;;
1320;SDS011;653;51.480;11.992;2022-12-17T09:12:25;64.50;;;35.37;;
1320;SDS011;653;51.480;11.992;2022-12-17T09:15:09;78.43;;;35.27;;
1320;SDS011;653;51.480;11.992;2022-12-17T09:17:53;91.97;;;40.27;;
1320;SDS011;653;51.480;11.992;2022-12-17T09:20:37;89.07;;;39.50;;
1320;SDS011;653;51.480;11.992;2022-12-17T09:23:21;103.63;;;40.73;;
1320;SDS011;653;51.480;11.992;2022-12-17T09:26:18;75.63;;;37.20;;
1320;SDS011;653;51.480;11.992;2022-12-17T09:29:02;77.30;;;39.87;;
1320;SDS011;653;51.480;11.992;2022-12-17T09:31:46;73.17;;;39.93;;
1320;SDS011;653;51.480;11.992;2022-12-17T09:34:29;81.77;;;39.67;;
1320;SDS011;653;51.480;11.992;2022-12-17T09:37:13;84.83;;;42.90;;
1320;SDS011;653;51.480;11.992;2022-12-17T09:39:57;73.10;;;40.40;;
1320;SDS011;653;51.480;11.992;2022-12-17T09:42:48;74.90;;;38.20;;
1320;SDS011;653;51.480;11.992;2022-12-17T09:48:45;72.60;;;37.00;;
1320;SDS011;653;51.480;11.992;2022-12-17T09:51:45;68.57;;;37.47;;
1320;SDS011;653;51.480;11.992;2022-12-17T09:54:37;64.97;;;37.87;;
1320;SDS011;653;51.480;11.992;2022-12-17T09:57:27;72.43;;;36.20;;
1320;SDS011;653;51.480;11.992;2022-12-17T10:00:20;66.90;;;37.90;;
1320;SDS011;653;51.480;11.992;2022-12-17T10:03:12;77.40;;;39.93;;
1320;SDS011;653;51.480;11.992;2022-12-17T10:05:58;72.07;;;37.57;;
1320;SDS011;653;51.480;11.992;2022-12-17T10:08:47;63.90;;;35.47;;
1320;SDS011;653;51.480;11.992;2022-12-17T10:11:33;77.93;;;37.87;;
1320;SDS011;653;51.480;11.992;2022-12-17T10:14:22;69.43;;;36.53;;
1320;SDS011;653;51.480;11.992;2022-12-17T10:17:14;76.63;;;38.17;;
1320;SDS011;653;51.480;11.992;2022-12-17T10:20:00;75.57;;;41.53;;
1320;SDS011;653;51.480;11.992;2022-12-17T10:22:48;70.97;;;39.17;;
1320;SDS011;653;51.480;11.992;2022-12-17T10:25:32;67.37;;;38.67;;
1320;SDS011;653;51.480;11.992;2022-12-17T10:28:18;89.80;;;48.33;;
1320;SDS011;653;51.480;11.992;2022-12-17T10:31:15;83.50;;;40.43;;
1320;SDS011;653;51.480;11.992;2022-12-17T10:34:04;81.93;;;42.63;;
1320;SDS011;653;51.480;11.992;2022-12-17T10:36:50;89.93;;;45.40;;
1320;SDS011;653;51.480;11.992;2022-12-17T10:39:34;78.77;;;41.23;;
1320;SDS011;653;51.480;11.992;2022-12-17T10:42:19;111.10;;;62.00;;
1320;SDS011;653;51.480;11.992;2022-12-17T10:45:19;80.13;;;42.87;;
1320;SDS011;653;51.480;11.992;2022-12-17T10:51:04;65.27;;;36.87;;
1320;SDS011;653;51.480;11.992;2022-12-17T10:53:57;63.70;;;36.60;;
1320;SDS011;653;51.480;11.992;2022-12-17T10:56:41;84.43;;;38.47;;
1320;SDS011;653;51.480;11.992;2022-12-17T10:59:35;72.33;;;36.47;;
1320;SDS011;653;51.480;11.992;2022-12-17T11:02:27;74.50;;;38.97;;
1320;SDS011;653;51.480;11.992;2022-12-17T11:05:24;76.00;;;38.80;;
1320;SDS011;653;51.480;11.992;2022-12-17T11:08:11;68.27;;;40.33;;
1320;SDS011;653;51.480;11.992;2022-12-17T11:10:57;64.93;;;37.70;;
1320;SDS011;653;51.480;11.992;2022-12-17T11:13:44;85.90;;;40.87;;
1320;SDS011;653;51.480;11.992;2022-12-17T11:16:33;87.10;;;38.40;;
1320;SDS011;653;51.480;11.992;2022-12-17T11:22:33;69.80;;;35.83;;
1320;SDS011;653;51.480;11.992;2022-12-17T11:25:25;61.60;;;37.00;;
1320;SDS011;653;51.480;11.992;2022-12-17T11:31:09;100.37;;;41.47;;
1320;SDS011;653;51.480;11.992;2022-12-17T11:34:04;85.43;;;42.23;;
1320;SDS011;653;51.480;11.992;2022-12-17T11:37:15;73.90;;;40.90;;
1320;SDS011;653;51.480;11.992;2022-12-17T11:46:19;70.17;;;38.07;;
1320;SDS011;653;51.480;11.992;2022-12-17T11:49:10;67.00;;;37.50;;
1320;SDS011;653;51.480;11.992;2022-12-17T11:55:08;77.23;;;41.87;;
1320;SDS011;653;51.480;11.992;2022-12-17T11:58:13;65.40;;;40.17;;
1320;SDS011;653;51.480;11.992;2022-12-17T12:07:19;76.63;;;39.47;;
1320;SDS011;653;51.480;11.992;2022-12-17T12:13:22;70.60;;;39.00;;
1320;SDS011;653;51.480;11.992;2022-12-17T12:19:05;70.03;;;40.00;;
1320;SDS011;653;51.480;11.992;2022-12-17T12:30:22;88.57;;;41.10;;
1320;SDS011;653;51.480;11.992;2022-12-17T12:36:05;77.07;;;39.77;;
1320;SDS011;653;51.480;11.992;2022-12-17T12:38:53;72.73;;;41.37;;
1320;SDS011;653;51.480;11.992;2022-12-17T12:41:41;71.57;;;41.03;;
1320;SDS011;653;51.480;11.992;2022-12-17T12:47:19;79.93;;;42.20;;
1320;SDS011;653;51.480;11.992;2022-12-17T12:50:20;72.63;;;41.87;;
1320;SDS011;653;51.480;11.992;2022-12-17T12:53:09;67.63;;;40.27;;
1320;SDS011;653;51.480;11.992;2022-12-17T12:55:54;78.70;;;41.87;;
1320;SDS011;653;51.480;11.992;2022-12-17T12:58:38;80.13;;;41.17;;
1320;SDS011;653;51.480;11.992;2022-12-17T13:01:30;76.13;;;42.67;;
1320;SDS011;653;51.480;11.992;2022-12-17T13:04:28;81.00;;;42.50;;
1320;SDS011;653;51.480;11.992;2022-12-17T13:07:34;78.77;;;41.03;;
1320;SDS011;653;51.480;11.992;2022-12-17T13:09:59;82.53;;;41.80;;
1320;SDS011;653;51.480;11.992;2022-12-17T13:12:26;78.67;;;41.97;;
1320;SDS011;653;51.480;11.992;2022-12-17T13:14:58;89.73;;;45.10;;
1320;SDS011;653;51.480;11.992;2022-12-17T13:20:02;91.47;;;44.77;;
1320;SDS011;653;51.480;11.992;2022-12-17T13:23:03;78.77;;;43.77;;
1320;SDS011;653;51.480;11.992;2022-12-17T13:25:48;79.40;;;44.23;;
1320;SDS011;653;51.480;11.992;2022-12-17T13:28:37;84.37;;;43.10;;
1320;SDS011;653;51.480;11.992;2022-12-17T13:31:14;80.47;;;41.10;;
1320;SDS011;653;51.480;11.992;2022-12-17T13:33:44;87.67;;;44.10;;
1320;SDS011;653;51.480;11.992;2022-12-17T13:36:35;83.50;;;45.50;;
1320;SDS011;653;51.480;11.992;2022-12-17T13:41:51;95.93;;;48.77;;
1320;SDS011;653;51.480;11.992;2022-12-17T13:44:20;96.00;;;51.37;;
1320;SDS011;653;51.480;11.992;2022-12-17T13:46:50;117.83;;;54.77;;
1320;SDS011;653;51.480;11.992;2022-12-17T13:51:47;100.93;;;52.03;;
1320;SDS011;653;51.480;11.992;2022-12-17T13:54:17;115.63;;;55.77;;
1320;SDS011;653;51.480;11.992;2022-12-17T13:56:43;111.70;;;53.37;;
1320;SDS011;653;51.480;11.992;2022-12-17T13:59:17;115.83;;;54.23;;
1320;SDS011;653;51.480;11.992;2022-12-17T14:01:44;110.73;;;52.93;;
1320;SDS011;653;51.480;11.992;2022-12-17T14:04:18;95.93;;;48.37;;
1320;SDS011;653;51.480;11.992;2022-12-17T14:06:50;108.97;;;53.30;;
1320;SDS011;653;51.480;11.992;2022-12-17T14:09:17;93.57;;;50.40;;
1320;SDS011;653;51.480;11.992;2022-12-17T14:11:44;97.37;;;48.07;;
1320;SDS011;653;51.480;11.992;2022-12-17T14:14:36;98.27;;;52.53;;
1320;SDS011;653;51.480;11.992;2022-12-17T14:17:02;97.33;;;50.00;;
1320;SDS011;653;51.480;11.992;2022-12-17T14:19:27;110.83;;;51.30;;
1320;SDS011;653;51.480;11.992;2022-12-17T14:21:54;104.30;;;46.10;;
1320;SDS011;653;51.480;11.992;2022-12-17T14:24:21;97.20;;;49.50;;
1320;SDS011;653;51.480;11.992;2022-12-17T14:26:58;108.03;;;51.50;;
1320;SDS011;653;51.480;11.992;2022-12-17T14:29:26;141.37;;;53.80;;
1320;SDS011;653;51.480;11.992;2022-12-17T14:32:00;100.93;;;51.30;;
1320;SDS011;653;51.480;11.992;2022-12-17T14:34:27;148.63;;;57.90;;
1320;SDS011;653;51.480;11.992;2022-12-17T14:36:57;122.67;;;57.90;;
1320;SDS011;653;51.480;11.992;2022-12-17T14:39:30;127.40;;;60.17;;
1320;SDS011;653;51.480;11.992;2022-12-17T14:42:07;127.67;;;53.90;;
1320;SDS011;653;51.480;11.992;2022-12-17T14:44:54;104.13;;;52.70;;
1320;SDS011;653;51.480;11.992;2022-12-17T14:47:23;147.87;;;56.23;;
1320;SDS011;653;51.480;11.992;2022-12-17T14:49:53;191.80;;;61.93;;
1320;SDS011;653;51.480;11.992;2022-12-17T14:55:20;221.83;;;60.70;;
1320;SDS011;653;51.480;11.992;2022-12-17T14:57:45;168.83;;;52.87;;
1320;SDS011;653;51.480;11.992;2022-12-17T15:00:11;186.53;;;54.17;;
1320;SDS011;653;51.480;11.992;2022-12-17T15:02:37;117.30;;;49.57;;
1320;SDS011;653;51.480;11.992;2022-12-17T15:05:02;167.20;;;53.30;;
1320;SDS011;653;51.480;11.992;2022-12-17T15:07:29;212.00;;;56.37;;
1320;SDS011;653;51.480;11.992;2022-12-17T15:09:55;166.57;;;51.47;;
1320;SDS011;653;51.480;11.992;2022-12-17T15:12:21;173.63;;;53.63;;
1320;SDS011;653;51.480;11.992;2022-12-17T15:14:47;136.00;;;49.20;;
1320;SDS011;653;51.480;11.992;2022-12-17T15:17:13;271.10;;;58.50;;
1320;SDS011;653;51.480;11.992;2022-12-17T15:19:39;177.50;;;52.33;;
1320;SDS011;653;51.480;11.992;2022-12-17T15:22:04;147.97;;;48.50;;
1320;SDS011;653;51.480;11.992;2022-12-17T15:24:29;136.73;;;49.40;;
1320;SDS011;653;51.480;11.992;2022-12-17T15:26:55;159.97;;;49.67;;
1320;SDS011;653;51.480;11.992;2022-12-17T15:29:21;151.90;;;47.60;;
1320;SDS011;653;51.480;11.992;2022-12-17T15:31:46;160.10;;;47.73;;
1320;SDS011;653;51.480;11.992;2022-12-17T15:34:11;163.13;;;51.10;;
1320;SDS011;653;51.480;11.992;2022-12-17T15:36:37;157.27;;;52.60;;
1320;SDS011;653;51.480;11.992;2022-12-17T15:39:02;156.50;;;49.93;;
1320;SDS011;653;51.480;11.992;2022-12-17T15:41:33;128.63;;;47.83;;
1320;SDS011;653;51.480;11.992;2022-12-17T15:44:17;145.93;;;46.90;;
1320;SDS011;653;51.480;11.992;2022-12-17T15:46:42;187.50;;;49.90;;
1320;SDS011;653;51.480;11.992;2022-12-17T15:49:07;231.97;;;56.80;;
1320;SDS011;653;51.480;11.992;2022-12-17T15:51:33;265.10;;;61.00;;
1320;SDS011;653;51.480;11.992;2022-12-17T15:53:58;99.87;;;44.90;;
1320;SDS011;653;51.480;11.992;2022-12-17T15:56:24;124.47;;;48.00;;
1320;SDS011;653;51.480;11.992;2022-12-17T15:58:51;167.43;;;49.37;;
1320;SDS011;653;51.480;11.992;2022-12-17T16:01:17;232.83;;;52.50;;
1320;SDS011;653;51.480;11.992;2022-12-17T16:03:43;225.03;;;53.77;;
1320;SDS011;653;51.480;11.992;2022-12-17T16:06:08;131.87;;;47.03;;
1320;SDS011;653;51.480;11.992;2022-12-17T16:08:35;155.67;;;51.03;;
1320;SDS011;653;51.480;11.992;2022-12-17T16:11:04;155.10;;;49.60;;
1320;SDS011;653;51.480;11.992;2022-12-17T16:13:31;189.27;;;53.03;;
1320;SDS011;653;51.480;11.992;2022-12-17T16:15:57;170.73;;;46.53;;
1320;SDS011;653;51.480;11.992;2022-12-17T16:18:24;127.70;;;48.57;;
1320;SDS011;653;51.480;11.992;2022-12-17T16:20:50;144.07;;;49.50;;
1320;SDS011;653;51.480;11.992;2022-12-17T16:23:16;220.97;;;50.73;;
1320;SDS011;653;51.480;11.992;2022-12-17T16:25:41;236.30;;;56.80;;
1320;SDS011;653;51.480;11.992;2022-12-17T16:28:07;187.60;;;53.53;;
1320;SDS011;653;51.480;11.992;2022-12-17T16:30:33;368.97;;;63.97;;
1320;SDS011;653;51.480;11.992;2022-12-17T16:32:59;333.13;;;62.67;;
1320;SDS011;653;51.480;11.992;2022-12-17T16:35:25;278.37;;;57.80;;
1320;SDS011;653;51.480;11.992;2022-12-17T16:37:52;182.53;;;44.57;;
1320;SDS011;653;51.480;11.992;2022-12-17T16:40:18;156.20;;;47.77;;
1320;SDS011;653;51.480;11.992;2022-12-17T16:42:43;224.00;;;52.00;;
1320;SDS011;653;51.480;11.992;2022-12-17T16:45:08;191.97;;;46.60;;
1320;SDS011;653;51.480;11.992;2022-12-17T16:47:34;121.20;;;41.77;;
1320;SDS011;653;51.480;11.992;2022-12-17T16:49:59;167.30;;;44.67;;
1320;SDS011;653;51.480;11.992;2022-12-17T16:52:25;143.40;;;47.77;;
1320;SDS011;653;51.480;11.992;2022-12-17T16:54:50;229.73;;;50.33;;
1320;SDS011;653;51.480;11.992;2022-12-17T16:57:16;144.37;;;42.53;;
1320;SDS011;653;51.480;11.992;2022-12-17T16:59:41;178.40;;;50.80;;
1320;SDS011;653;51.480;11.992;2022-12-17T17:02:11;98.00;;;42.40;;
1320;SDS011;653;51.480;11.992;2022-12-17T17:04:37;192.80;;;51.37;;
1320;SDS011;653;51.480;11.992;2022-12-17T17:07:03;185.60;;;48.90;;
1320;SDS011;653;51.480;11.992;2022-12-17T17:09:29;152.13;;;47.47;;
1320;SDS011;653;51.480;11.992;2022-12-17T17:11:55;286.80;;;53.77;;
1320;SDS011;653;51.480;11.992;2022-12-17T17:14:21;193.93;;;50.10;;
1320;SDS011;653;51.480;11.992;2022-12-17T17:16:48;139.53;;;46.77;;
1320;SDS011;653;51.480;11.992;2022-12-17T17:19:13;125.20;;;42.73;;